sensor_id;sensor_type;location;lat;lon;timestamp;pressure;altitude;pressure_sealevel;temperature;humidity
64025;BME280;50266;57.446;26.936;2023-08-17T00:00:53;99815.26;;;20.83;100.0
64025;BME280;50266;57.446;26.936;2023-08-17T00:01:53;99813.05;;;20.75;100.0
64025;BME280;50266;57.446;26.936;2023-08-17T00:02:53;99811.47;;;20.68;100.0
64025;BME280;50266;57.446;26.936;2023-08-17T00:03:53;99814.0;;;20.68;100.0
64025;BME280;50266;57.446;26.936;2023-08-17T00:04:53;99817.52;;;20.64;100.0
64025;BME280;50266;57.446;26.936;2023-08-17T00:05:53;99815.96;;;20.6;100.0
64025;BME280;50266;57.446;26.936;2023-08-17T00:06:53;99815.87;;;20.58;100.0
64025;BME280;50266;57.446;26.936;2023-08-17T00:07:53;99820.94;;;20.56;100.0
64025;BME280;50266;57.446;26.936;2023-08-17T00:08:53;99822.32;;;20.5;100.0
64025;BME280;50266;57.446;26.936;2023-08-17T00:09:53;99823.95;;;20.67;100.0
64025;BME280;50266;57.446;26.936;2023-08-17T00:10:53;99826.14;;;20.77;100.0
64025;BME280;50266;57.446;26.936;2023-08-17T00:11:53;99827.23;;;20.81;100.0
64025;BME280;50266;57.446;26.936;2023-08-17T00:12:53;99825.19;;;20.73;100.0
64025;BME280;50266;57.446;26.936;2023-08-17T00:13:53;99831.1;;;20.64;100.0
64025;BME280;50266;57.446;26.936;2023-08-17T00:14:53;99824.82;;;20.55;100.0
64025;BME280;50266;57.446;26.936;2023-08-17T00:15:53;99830.81;;;20.56;100.0
64025;BME280;50266;57.446;26.936;2023-08-17T00:16:53;99832.2;;;20.51;100.0
64025;BME280;50266;57.446;26.936;2023-08-17T00:17:53;99833.11;;;20.49;100.0
64025;BME280;50266;57.446;26.936;2023-08-17T00:18:53;99831.34;;;20.48;100.0
64025;BME280;50266;57.446;26.936;2023-08-17T00:19:53;99831.48;;;20.46;100.0
64025;BME280;50266;57.446;26.936;2023-08-17T00:20:53;99834.04;;;20.48;100.0
64025;BME280;50266;57.446;26.936;2023-08-17T00:21:53;99840.41;;;20.44;100.0
64025;BME280;50266;57.446;26.936;2023-08-17T00:22:53;99841.05;;;20.37;100.0
64025;BME280;50266;57.446;26.936;2023-08-17T00:23:53;99841.25;;;20.43;100.0
64025;BME280;50266;57.446;26.936;2023-08-17T00:24:53;99838.88;;;20.51;100.0
64025;BME280;50266;57.446;26.936;2023-08-17T00:25:53;99836.03;;;20.45;100.0
64025;BME280;50266;57.446;26.936;2023-08-17T00:26:53;99834.48;;;20.41;100.0
64025;BME280;50266;57.446;26.936;2023-08-17T00:27:53;99832.72;;;20.41;100.0
64025;BME280;50266;57.446;26.936;2023-08-17T00:28:53;99834.45;;;20.38;100.0
64025;BME280;50266;57.446;26.936;2023-08-17T00:29:53;99833.3;;;20.32;100.0
64025;BME280;50266;57.446;26.936;2023-08-17T00:30:53;99830.2;;;20.26;100.0
64025;BME280;50266;57.446;26.936;2023-08-17T00:31:53;99836.33;;;20.22;100.0
64025;BME280;50266;57.446;26.936;2023-08-17T00:32:54;99835.29;;;20.2;100.0
64025;BME280;50266;57.446;26.936;2023-08-17T00:33:54;99837.53;;;20.16;100.0
64025;BME280;50266;57.446;26.936;2023-08-17T00:34:54;99840.83;;;20.14;100.0
64025;BME280;50266;57.446;26.936;2023-08-17T00:35:54;99841.21;;;20.22;100.0
64025;BME280;50266;57.446;26.936;2023-08-17T00:36:54;99843.34;;;20.24;100.0
64025;BME280;50266;57.446;26.936;2023-08-17T00:37:54;99848.49;;;20.24;100.0
64025;BME280;50266;57.446;26.936;2023-08-17T00:38:54;99847.83;;;20.26;100.0
64025;BME280;50266;57.446;26.936;2023-08-17T00:39:54;99850.28;;;20.26;100.0
64025;BME280;50266;57.446;26.936;2023-08-17T00:40:54;99854.86;;;20.29;100.0
64025;BME280;50266;57.446;26.936;2023-08-17T00:41:54;99858.8;;;20.34;100.0
64025;BME280;50266;57.446;26.936;2023-08-17T00:42:54;99855.33;;;20.25;100.0
64025;BME280;50266;57.446;26.936;2023-08-17T00:43:54;99855.21;;;20.21;100.0
64025;BME280;50266;57.446;26.936;2023-08-17T00:44:54;99853.24;;;20.19;100.0
64025;BME280;50266;57.446;26.936;2023-08-17T00:45:54;99855.59;;;20.14;100.0
64025;BME280;50266;57.446;26.936;2023-08-17T00:46:54;99858.99;;;20.09;100.0
64025;BME280;50266;57.446;26.936;2023-08-17T00:47:55;99855.91;;;20.04;100.0
64025;BME280;50266;57.446;26.936;2023-08-17T00:48:54;99856.89;;;20.03;100.0
64025;BME280;50266;57.446;26.936;2023-08-17T00:49:54;99855.47;;;20.03;100.0
64025;BME280;50266;57.446;26.936;2023-08-17T00:50:54;99859.59;;;20.1;100.0
64025;BME280;50266;57.446;26.936;2023-08-17T00:51:54;99862.88;;;20.1;100.0
64025;BME280;50266;57.446;26.936;2023-08-17T00:52:54;99860.38;;;20.04;100.0
64025;BME280;50266;57.446;26.936;2023-08-17T00:53:54;99866.84;;;20.03;100.0
64025;BME280;50266;57.446;26.936;2023-08-17T00:54:54;99866.38;;;20.06;100.0
64025;BME280;50266;57.446;26.936;2023-08-17T00:55:54;99866.04;;;19.98;100.0
64025;BME280;50266;57.446;26.936;2023-08-17T00:56:54;99861.71;;;19.96;100.0
64025;BME280;50266;57.446;26.936;2023-08-17T00:57:54;99865.62;;;19.88;100.0
64025;BME280;50266;57.446;26.936;2023-08-17T00:58:54;99860.94;;;19.85;100.0
64025;BME280;50266;57.446;26.936;2023-08-17T00:59:54;99864.92;;;19.97;100.0
64025;BME280;50266;57.446;26.936;2023-08-17T01:00:56;99858.66;;;20.1;100.0
64025;BME280;50266;57.446;26.936;2023-08-17T01:01:56;99858.47;;;20.18;100.0
64025;BME280;50266;57.446;26.936;2023-08-17T01:02:56;99862.02;;;20.19;100.0
64025;BME280;50266;57.446;26.936;2023-08-17T01:03:56;99861.74;;;20.17;100.0
64025;BME280;50266;57.446;26.936;2023-08-17T01:04:56;99859.17;;;20.3;100.0
64025;BME280;50266;57.446;26.936;2023-08-17T01:05:57;99861.53;;;20.21;100.0
64025;BME280;50266;57.446;26.936;2023-08-17T01:06:57;99860.8;;;20.12;100.0
64025;BME280;50266;57.446;26.936;2023-08-17T01:07:57;99865.92;;;20.1;100.0
64025;BME280;50266;57.446;26.936;2023-08-17T01:08:57;99868.05;;;20.05;100.0
64025;BME280;50266;57.446;26.936;2023-08-17T01:09:57;99867.59;;;19.92;100.0
64025;BME280;50266;57.446;26.936;2023-08-17T01:10:59;99870.38;;;19.84;100.0
64025;BME280;50266;57.446;26.936;2023-08-17T01:13:05;99873.88;;;19.72;100.0
64025;BME280;50266;57.446;26.936;2023-08-17T01:14:14;99874.4;;;19.67;100.0
64025;BME280;50266;57.446;26.936;2023-08-17T01:15:14;99876.48;;;19.59;100.0
64025;BME280;50266;57.446;26.936;2023-08-17T01:16:12;99876.86;;;19.55;100.0
64025;BME280;50266;57.446;26.936;2023-08-17T01:17:22;99876.7;;;19.55;100.0
64025;BME280;50266;57.446;26.936;2023-08-17T01:18:20;99877.7;;;19.49;100.0
64025;BME280;50266;57.446;26.936;2023-08-17T01:19:12;99874.53;;;19.45;100.0
64025;BME280;50266;57.446;26.936;2023-08-17T01:20:14;99876.38;;;19.38;100.0
64025;BME280;50266;57.446;26.936;2023-08-17T01:21:13;99876.38;;;19.3;100.0
64025;BME280;50266;57.446;26.936;2023-08-17T01:22:14;99877.3;;;19.37;100.0
64025;BME280;50266;57.446;26.936;2023-08-17T01:23:13;99874.54;;;19.39;100.0
64025;BME280;50266;57.446;26.936;2023-08-17T01:24:13;99877.84;;;19.41;100.0
64025;BME280;50266;57.446;26.936;2023-08-17T01:25:14;99877.5;;;19.35;100.0
64025;BME280;50266;57.446;26.936;2023-08-17T01:26:14;99877.55;;;19.38;100.0
64025;BME280;50266;57.446;26.936;2023-08-17T01:27:14;99879.84;;;19.39;100.0
64025;BME280;50266;57.446;26.936;2023-08-17T01:28:14;99878.84;;;19.4;100.0
64025;BME280;50266;57.446;26.936;2023-08-17T01:29:14;99879.05;;;19.37;100.0
64025;BME280;50266;57.446;26.936;2023-08-17T01:30:15;99874.67;;;19.28;100.0
64025;BME280;50266;57.446;26.936;2023-08-17T01:31:19;99878.86;;;19.21;100.0
64025;BME280;50266;57.446;26.936;2023-08-17T01:34:26;99878.91;;;19.57;100.0
64025;BME280;50266;57.446;26.936;2023-08-17T01:36:30;99875.3;;;19.64;100.0
64025;BME280;50266;57.446;26.936;2023-08-17T01:37:28;99875.99;;;19.6;100.0
64025;BME280;50266;57.446;26.936;2023-08-17T01:38:27;99878.88;;;19.48;100.0
64025;BME280;50266;57.446;26.936;2023-08-17T01:39:30;99870.55;;;19.43;100.0
64025;BME280;50266;57.446;26.936;2023-08-17T01:40:33;99875.68;;;19.43;100.0
64025;BME280;50266;57.446;26.936;2023-08-17T01:41:30;99876.58;;;19.5;100.0
64025;BME280;50266;57.446;26.936;2023-08-17T01:42:30;99874.9;;;19.51;100.0
64025;BME280;50266;57.446;26.936;2023-08-17T01:43:30;99876.06;;;19.46;100.0
64025;BME280;50266;57.446;26.936;2023-08-17T01:44:30;99871.86;;;19.47;100.0
64025;BME280;50266;57.446;26.936;2023-08-17T01:45:30;99870.56;;;19.38;100.0
64025;BME280;50266;57.446;26.936;2023-08-17T01:46:31;99869.17;;;19.35;100.0
64025;BME280;50266;57.446;26.936;2023-08-17T01:47:30;99866.48;;;19.28;100.0
64025;BME280;50266;57.446;26.936;2023-08-17T01:48:30;99866.5;;;19.22;100.0
64025;BME280;50266;57.446;26.936;2023-08-17T01:49:30;99866.69;;;19.18;100.0
64025;BME280;50266;57.446;26.936;2023-08-17T01:50:31;99868.03;;;19.18;100.0
64025;BME280;50266;57.446;26.936;2023-08-17T01:51:31;99864.95;;;19.14;100.0
64025;BME280;50266;57.446;26.936;2023-08-17T01:52:31;99864.78;;;19.15;100.0
64025;BME280;50266;57.446;26.936;2023-08-17T01:53:31;99866.64;;;19.15;100.0
64025;BME280;50266;57.446;26.936;2023-08-17T01:54:31;99864.91;;;19.17;100.0
64025;BME280;50266;57.446;26.936;2023-08-17T01:55:31;99863.74;;;19.18;100.0
64025;BME280;50266;57.446;26.936;2023-08-17T01:56:31;99865.33;;;19.23;100.0
64025;BME280;50266;57.446;26.936;2023-08-17T01:57:31;99864.16;;;19.3;100.0
64025;BME280;50266;57.446;26.936;2023-08-17T01:58:31;99862.95;;;19.28;100.0
64025;BME280;50266;57.446;26.936;2023-08-17T01:59:31;99865.2;;;19.2;100.0
64025;BME280;50266;57.446;26.936;2023-08-17T02:00:31;99864.09;;;19.14;100.0
64025;BME280;50266;57.446;26.936;2023-08-17T02:01:31;99863.03;;;19.08;100.0
64025;BME280;50266;57.446;26.936;2023-08-17T02:02:31;99860.91;;;19.07;100.0
64025;BME280;50266;57.446;26.936;2023-08-17T02:03:31;99862.38;;;19.09;100.0
64025;BME280;50266;57.446;26.936;2023-08-17T02:04:31;99862.22;;;19.1;100.0
64025;BME280;50266;57.446;26.936;2023-08-17T02:05:31;99863.91;;;19.1;100.0
64025;BME280;50266;57.446;26.936;2023-08-17T02:06:31;99864.34;;;19.11;100.0
64025;BME280;50266;57.446;26.936;2023-08-17T02:07:31;99864.31;;;19.1;100.0
64025;BME280;50266;57.446;26.936;2023-08-17T02:08:32;99857.6;;;19.05;100.0
64025;BME280;50266;57.446;26.936;2023-08-17T02:09:31;99858.75;;;18.97;100.0
64025;BME280;50266;57.446;26.936;2023-08-17T02:10:31;99861.28;;;18.93;100.0
64025;BME280;50266;57.446;26.936;2023-08-17T02:11:31;99858.47;;;18.88;100.0
64025;BME280;50266;57.446;26.936;2023-08-17T02:12:31;99859.98;;;18.83;100.0
64025;BME280;50266;57.446;26.936;2023-08-17T02:13:31;99859.7;;;18.81;100.0
64025;BME280;50266;57.446;26.936;2023-08-17T02:14:31;99857.73;;;18.9;100.0
64025;BME280;50266;57.446;26.936;2023-08-17T02:15:31;99855.59;;;18.95;100.0
64025;BME280;50266;57.446;26.936;2023-08-17T02:16:31;99859.55;;;18.95;100.0
64025;BME280;50266;57.446;26.936;2023-08-17T02:17:31;99856.61;;;18.95;100.0
64025;BME280;50266;57.446;26.936;2023-08-17T02:18:31;99858.66;;;18.92;100.0
64025;BME280;50266;57.446;26.936;2023-08-17T02:19:31;99863.45;;;18.84;100.0
64025;BME280;50266;57.446;26.936;2023-08-17T02:20:31;99861.67;;;18.83;100.0
64025;BME280;50266;57.446;26.936;2023-08-17T02:21:31;99862.6;;;18.78;100.0
64025;BME280;50266;57.446;26.936;2023-08-17T02:22:31;99859.02;;;18.76;100.0
64025;BME280;50266;57.446;26.936;2023-08-17T02:23:31;99858.78;;;18.81;100.0
64025;BME280;50266;57.446;26.936;2023-08-17T02:24:31;99859.18;;;18.85;100.0
64025;BME280;50266;57.446;26.936;2023-08-17T02:25:31;99856.5;;;18.86;100.0
64025;BME280;50266;57.446;26.936;2023-08-17T02:26:31;99857.45;;;18.82;100.0
64025;BME280;50266;57.446;26.936;2023-08-17T02:27:31;99858.42;;;18.91;100.0
64025;BME280;50266;57.446;26.936;2023-08-17T02:28:31;99860.16;;;19.02;100.0
64025;BME280;50266;57.446;26.936;2023-08-17T02:29:31;99857.13;;;19.02;100.0
64025;BME280;50266;57.446;26.936;2023-08-17T02:30:31;99855.34;;;19.0;100.0
64025;BME280;50266;57.446;26.936;2023-08-17T02:31:31;99852.85;;;18.97;100.0
64025;BME280;50266;57.446;26.936;2023-08-17T02:32:31;99849.05;;;18.91;100.0
64025;BME280;50266;57.446;26.936;2023-08-17T02:33:31;99848.67;;;18.86;100.0
64025;BME280;50266;57.446;26.936;2023-08-17T02:34:31;99852.58;;;18.83;100.0
64025;BME280;50266;57.446;26.936;2023-08-17T02:35:31;99849.17;;;18.81;100.0
64025;BME280;50266;57.446;26.936;2023-08-17T02:36:31;99846.55;;;18.75;100.0
64025;BME280;50266;57.446;26.936;2023-08-17T02:37:31;99843.38;;;18.76;100.0
64025;BME280;50266;57.446;26.936;2023-08-17T02:38:31;99841.86;;;18.76;100.0
64025;BME280;50266;57.446;26.936;2023-08-17T02:39:31;99842.27;;;18.76;100.0
64025;BME280;50266;57.446;26.936;2023-08-17T02:40:31;99845.75;;;18.72;100.0
64025;BME280;50266;57.446;26.936;2023-08-17T02:41:31;99845.44;;;18.61;100.0
64025;BME280;50266;57.446;26.936;2023-08-17T02:42:31;99842.19;;;18.5;100.0
64025;BME280;50266;57.446;26.936;2023-08-17T02:43:31;99840.91;;;18.43;100.0
64025;BME280;50266;57.446;26.936;2023-08-17T02:44:31;99842.42;;;18.33;100.0
64025;BME280;50266;57.446;26.936;2023-08-17T02:45:33;99839.7;;;18.36;100.0
64025;BME280;50266;57.446;26.936;2023-08-17T02:46:31;99834.73;;;18.4;100.0
64025;BME280;50266;57.446;26.936;2023-08-17T02:47:31;99836.67;;;18.41;100.0
64025;BME280;50266;57.446;26.936;2023-08-17T02:48:31;99837.41;;;18.45;100.0
64025;BME280;50266;57.446;26.936;2023-08-17T02:49:31;99835.25;;;18.46;100.0
64025;BME280;50266;57.446;26.936;2023-08-17T02:50:31;99833.16;;;18.47;100.0
64025;BME280;50266;57.446;26.936;2023-08-17T02:51:31;99830.41;;;18.5;100.0
64025;BME280;50266;57.446;26.936;2023-08-17T02:52:31;99835.44;;;18.67;100.0
64025;BME280;50266;57.446;26.936;2023-08-17T02:53:31;99831.61;;;18.71;100.0
64025;BME280;50266;57.446;26.936;2023-08-17T02:54:32;99830.59;;;18.59;100.0
64025;BME280;50266;57.446;26.936;2023-08-17T02:55:32;99831.97;;;18.53;100.0
64025;BME280;50266;57.446;26.936;2023-08-17T02:56:32;99829.91;;;18.51;100.0
64025;BME280;50266;57.446;26.936;2023-08-17T02:57:32;99828.14;;;18.5;100.0
64025;BME280;50266;57.446;26.936;2023-08-17T02:58:32;99826.06;;;18.51;100.0
64025;BME280;50266;57.446;26.936;2023-08-17T02:59:32;99826.34;;;18.53;100.0
64025;BME280;50266;57.446;26.936;2023-08-17T03:00:32;99828.84;;;18.57;100.0
64025;BME280;50266;57.446;26.936;2023-08-17T03:01:32;99825.91;;;18.6;100.0
64025;BME280;50266;57.446;26.936;2023-08-17T03:02:32;99825.03;;;18.64;100.0
64025;BME280;50266;57.446;26.936;2023-08-17T03:03:32;99826.25;;;18.61;100.0
64025;BME280;50266;57.446;26.936;2023-08-17T03:04:32;99826.26;;;18.61;100.0
64025;BME280;50266;57.446;26.936;2023-08-17T03:05:33;99822.98;;;18.62;100.0
64025;BME280;50266;57.446;26.936;2023-08-17T03:06:32;99828.88;;;18.62;100.0
64025;BME280;50266;57.446;26.936;2023-08-17T03:07:32;99828.72;;;18.54;100.0
64025;BME280;50266;57.446;26.936;2023-08-17T03:08:32;99823.11;;;18.44;100.0
64025;BME280;50266;57.446;26.936;2023-08-17T03:09:32;99822.61;;;18.39;100.0
64025;BME280;50266;57.446;26.936;2023-08-17T03:10:32;99822.27;;;18.34;100.0
64025;BME280;50266;57.446;26.936;2023-08-17T03:11:32;99822.39;;;18.32;100.0
64025;BME280;50266;57.446;26.936;2023-08-17T03:12:32;99820.69;;;18.28;100.0
64025;BME280;50266;57.446;26.936;2023-08-17T03:13:32;99821.69;;;18.28;100.0
64025;BME280;50266;57.446;26.936;2023-08-17T03:14:32;99821.2;;;18.31;100.0
64025;BME280;50266;57.446;26.936;2023-08-17T03:15:32;99819.7;;;18.37;100.0
64025;BME280;50266;57.446;26.936;2023-08-17T03:16:32;99823.17;;;18.38;100.0
64025;BME280;50266;57.446;26.936;2023-08-17T03:17:32;99830.46;;;18.25;100.0
64025;BME280;50266;57.446;26.936;2023-08-17T03:18:32;99826.22;;;18.07;100.0
64025;BME280;50266;57.446;26.936;2023-08-17T03:19:32;99827.8;;;18.01;100.0
64025;BME280;50266;57.446;26.936;2023-08-17T03:20:32;99829.84;;;17.99;100.0
64025;BME280;50266;57.446;26.936;2023-08-17T03:21:32;99834.7;;;18.03;100.0
64025;BME280;50266;57.446;26.936;2023-08-17T03:22:32;99835.34;;;18.01;100.0
64025;BME280;50266;57.446;26.936;2023-08-17T03:23:32;99833.47;;;17.99;100.0
64025;BME280;50266;57.446;26.936;2023-08-17T03:24:32;99833.74;;;18.01;100.0
64025;BME280;50266;57.446;26.936;2023-08-17T03:25:32;99829.87;;;18.0;100.0
64025;BME280;50266;57.446;26.936;2023-08-17T03:26:32;99827.14;;;18.02;100.0
64025;BME280;50266;57.446;26.936;2023-08-17T03:27:32;99825.0;;;18.01;100.0
64025;BME280;50266;57.446;26.936;2023-08-17T03:28:32;99830.02;;;18.04;100.0
64025;BME280;50266;57.446;26.936;2023-08-17T03:29:32;99827.23;;;18.03;100.0
64025;BME280;50266;57.446;26.936;2023-08-17T03:30:32;99833.28;;;18.03;100.0
64025;BME280;50266;57.446;26.936;2023-08-17T03:31:32;99830.53;;;18.0;100.0
64025;BME280;50266;57.446;26.936;2023-08-17T03:32:32;99833.05;;;18.04;100.0
64025;BME280;50266;57.446;26.936;2023-08-17T03:33:32;99829.69;;;18.04;100.0
64025;BME280;50266;57.446;26.936;2023-08-17T03:34:32;99828.75;;;18.08;100.0
64025;BME280;50266;57.446;26.936;2023-08-17T03:35:32;99825.42;;;18.16;100.0
64025;BME280;50266;57.446;26.936;2023-08-17T03:36:32;99829.52;;;18.24;100.0
64025;BME280;50266;57.446;26.936;2023-08-17T03:37:32;99826.1;;;18.32;100.0
64025;BME280;50266;57.446;26.936;2023-08-17T03:38:32;99828.84;;;18.4;100.0
64025;BME280;50266;57.446;26.936;2023-08-17T03:39:32;99829.58;;;18.39;100.0
64025;BME280;50266;57.446;26.936;2023-08-17T03:40:32;99827.07;;;18.4;100.0
64025;BME280;50266;57.446;26.936;2023-08-17T03:41:32;99829.52;;;18.35;100.0
64025;BME280;50266;57.446;26.936;2023-08-17T03:42:32;99832.3;;;18.41;100.0
64025;BME280;50266;57.446;26.936;2023-08-17T03:43:32;99826.88;;;18.43;100.0
64025;BME280;50266;57.446;26.936;2023-08-17T03:44:32;99829.59;;;18.44;100.0
64025;BME280;50266;57.446;26.936;2023-08-17T03:45:32;99831.0;;;18.43;100.0
64025;BME280;50266;57.446;26.936;2023-08-17T03:46:32;99827.47;;;18.33;100.0
64025;BME280;50266;57.446;26.936;2023-08-17T03:47:32;99829.95;;;18.31;100.0
64025;BME280;50266;57.446;26.936;2023-08-17T03:48:32;99835.38;;;18.28;100.0
64025;BME280;50266;57.446;26.936;2023-08-17T03:49:32;99837.31;;;18.29;100.0
64025;BME280;50266;57.446;26.936;2023-08-17T03:50:32;99839.95;;;18.24;100.0
64025;BME280;50266;57.446;26.936;2023-08-17T03:51:32;99839.33;;;18.18;100.0
64025;BME280;50266;57.446;26.936;2023-08-17T03:52:32;99838.22;;;18.17;100.0
64025;BME280;50266;57.446;26.936;2023-08-17T03:53:33;99836.17;;;18.2;100.0
64025;BME280;50266;57.446;26.936;2023-08-17T03:54:32;99839.24;;;18.27;100.0
64025;BME280;50266;57.446;26.936;2023-08-17T03:55:32;99839.69;;;18.35;100.0
64025;BME280;50266;57.446;26.936;2023-08-17T03:56:32;99837.83;;;18.44;100.0
64025;BME280;50266;57.446;26.936;2023-08-17T03:57:33;99836.41;;;18.51;100.0
64025;BME280;50266;57.446;26.936;2023-08-17T03:58:33;99837.5;;;18.57;100.0
64025;BME280;50266;57.446;26.936;2023-08-17T03:59:33;99840.77;;;18.63;100.0
64025;BME280;50266;57.446;26.936;2023-08-17T04:00:33;99840.72;;;18.66;100.0
64025;BME280;50266;57.446;26.936;2023-08-17T04:01:33;99838.5;;;18.69;100.0
64025;BME280;50266;57.446;26.936;2023-08-17T04:02:33;99836.56;;;18.71;100.0
64025;BME280;50266;57.446;26.936;2023-08-17T04:03:33;99837.27;;;18.73;100.0
64025;BME280;50266;57.446;26.936;2023-08-17T04:04:33;99836.83;;;18.77;100.0
64025;BME280;50266;57.446;26.936;2023-08-17T04:05:33;99835.25;;;18.89;100.0
64025;BME280;50266;57.446;26.936;2023-08-17T04:06:34;99835.12;;;18.94;100.0
64025;BME280;50266;57.446;26.936;2023-08-17T04:07:33;99833.75;;;18.98;100.0
64025;BME280;50266;57.446;26.936;2023-08-17T04:08:33;99836.3;;;19.0;100.0
64025;BME280;50266;57.446;26.936;2023-08-17T04:09:33;99837.07;;;19.0;100.0
64025;BME280;50266;57.446;26.936;2023-08-17T04:10:33;99833.39;;;18.96;100.0
64025;BME280;50266;57.446;26.936;2023-08-17T04:11:36;99833.76;;;18.93;100.0
64025;BME280;50266;57.446;26.936;2023-08-17T04:12:33;99831.44;;;18.95;100.0
64025;BME280;50266;57.446;26.936;2023-08-17T04:13:33;99831.64;;;19.03;100.0
64025;BME280;50266;57.446;26.936;2023-08-17T04:14:33;99830.0;;;19.2;100.0
64025;BME280;50266;57.446;26.936;2023-08-17T04:15:33;99830.52;;;19.21;100.0
64025;BME280;50266;57.446;26.936;2023-08-17T04:16:33;99833.75;;;19.23;100.0
64025;BME280;50266;57.446;26.936;2023-08-17T04:17:33;99837.6;;;19.16;100.0
64025;BME280;50266;57.446;26.936;2023-08-17T04:18:33;99841.34;;;19.05;100.0
64025;BME280;50266;57.446;26.936;2023-08-17T04:19:33;99845.3;;;19.11;100.0
64025;BME280;50266;57.446;26.936;2023-08-17T04:20:33;99842.14;;;19.27;100.0
64025;BME280;50266;57.446;26.936;2023-08-17T04:21:33;99838.43;;;19.35;100.0
64025;BME280;50266;57.446;26.936;2023-08-17T04:22:33;99835.41;;;19.42;100.0
64025;BME280;50266;57.446;26.936;2023-08-17T04:23:34;99843.67;;;19.43;100.0
64025;BME280;50266;57.446;26.936;2023-08-17T04:24:34;99838.34;;;19.47;100.0
64025;BME280;50266;57.446;26.936;2023-08-17T04:25:34;99841.45;;;19.52;100.0
64025;BME280;50266;57.446;26.936;2023-08-17T04:26:34;99835.81;;;19.51;100.0
64025;BME280;50266;57.446;26.936;2023-08-17T04:27:34;99843.41;;;19.52;100.0
64025;BME280;50266;57.446;26.936;2023-08-17T04:28:34;99839.76;;;19.5;100.0
64025;BME280;50266;57.446;26.936;2023-08-17T04:29:34;99838.64;;;19.57;100.0
64025;BME280;50266;57.446;26.936;2023-08-17T04:30:34;99844.28;;;19.64;100.0
64025;BME280;50266;57.446;26.936;2023-08-17T04:31:34;99843.23;;;19.68;100.0
64025;BME280;50266;57.446;26.936;2023-08-17T04:32:34;99838.07;;;19.76;100.0
64025;BME280;50266;57.446;26.936;2023-08-17T04:33:34;99837.62;;;19.81;100.0
64025;BME280;50266;57.446;26.936;2023-08-17T04:34:34;99840.94;;;19.83;100.0
64025;BME280;50266;57.446;26.936;2023-08-17T04:35:34;99840.33;;;19.88;100.0
64025;BME280;50266;57.446;26.936;2023-08-17T04:36:34;99844.61;;;19.8;100.0
64025;BME280;50266;57.446;26.936;2023-08-17T04:37:34;99841.7;;;19.74;100.0
64025;BME280;50266;57.446;26.936;2023-08-17T04:38:34;99842.13;;;19.77;100.0
64025;BME280;50266;57.446;26.936;2023-08-17T04:39:34;99843.96;;;19.75;100.0
64025;BME280;50266;57.446;26.936;2023-08-17T04:40:34;99846.03;;;19.78;100.0
64025;BME280;50266;57.446;26.936;2023-08-17T04:41:34;99846.79;;;19.79;100.0
64025;BME280;50266;57.446;26.936;2023-08-17T04:42:34;99848.36;;;19.76;100.0
64025;BME280;50266;57.446;26.936;2023-08-17T04:43:34;99850.42;;;19.79;100.0
64025;BME280;50266;57.446;26.936;2023-08-17T04:44:34;99847.55;;;19.86;100.0
64025;BME280;50266;57.446;26.936;2023-08-17T04:45:34;99853.28;;;19.93;100.0
64025;BME280;50266;57.446;26.936;2023-08-17T04:46:35;99854.23;;;19.88;100.0
64025;BME280;50266;57.446;26.936;2023-08-17T04:47:34;99848.89;;;19.85;100.0
64025;BME280;50266;57.446;26.936;2023-08-17T04:48:34;99850.3;;;19.83;100.0
64025;BME280;50266;57.446;26.936;2023-08-17T04:49:34;99851.16;;;19.95;100.0
64025;BME280;50266;57.446;26.936;2023-08-17T04:50:34;99852.98;;;20.0;100.0
64025;BME280;50266;57.446;26.936;2023-08-17T04:51:35;99850.71;;;20.0;100.0
64025;BME280;50266;57.446;26.936;2023-08-17T04:52:34;99852.16;;;19.91;100.0
64025;BME280;50266;57.446;26.936;2023-08-17T04:53:34;99847.05;;;19.94;100.0
64025;BME280;50266;57.446;26.936;2023-08-17T04:54:34;99849.72;;;19.92;100.0
64025;BME280;50266;57.446;26.936;2023-08-17T04:55:34;99850.12;;;19.9;100.0
64025;BME280;50266;57.446;26.936;2023-08-17T04:56:34;99846.58;;;20.0;100.0
64025;BME280;50266;57.446;26.936;2023-08-17T04:57:34;99845.23;;;20.08;100.0
64025;BME280;50266;57.446;26.936;2023-08-17T04:58:34;99843.88;;;20.07;100.0
64025;BME280;50266;57.446;26.936;2023-08-17T04:59:34;99842.65;;;20.11;100.0
64025;BME280;50266;57.446;26.936;2023-08-17T05:00:34;99839.72;;;20.13;100.0
64025;BME280;50266;57.446;26.936;2023-08-17T05:01:34;99843.34;;;20.13;100.0
64025;BME280;50266;57.446;26.936;2023-08-17T05:02:35;99839.33;;;20.19;100.0
64025;BME280;50266;57.446;26.936;2023-08-17T05:03:34;99842.78;;;20.19;100.0
64025;BME280;50266;57.446;26.936;2023-08-17T05:04:35;99847.09;;;20.2;100.0
64025;BME280;50266;57.446;26.936;2023-08-17T05:05:34;99845.06;;;20.15;100.0
64025;BME280;50266;57.446;26.936;2023-08-17T05:06:34;99843.7;;;20.17;100.0
64025;BME280;50266;57.446;26.936;2023-08-17T05:07:34;99847.48;;;20.17;100.0
64025;BME280;50266;57.446;26.936;2023-08-17T05:08:34;99842.09;;;20.18;100.0
64025;BME280;50266;57.446;26.936;2023-08-17T05:09:34;99843.53;;;20.26;100.0
64025;BME280;50266;57.446;26.936;2023-08-17T05:10:34;99844.73;;;20.28;100.0
64025;BME280;50266;57.446;26.936;2023-08-17T05:11:34;99843.5;;;20.32;100.0
64025;BME280;50266;57.446;26.936;2023-08-17T05:12:34;99839.7;;;20.32;100.0
64025;BME280;50266;57.446;26.936;2023-08-17T05:13:34;99839.42;;;20.29;100.0
64025;BME280;50266;57.446;26.936;2023-08-17T05:14:34;99842.19;;;20.26;100.0
64025;BME280;50266;57.446;26.936;2023-08-17T05:15:34;99843.39;;;20.29;100.0
64025;BME280;50266;57.446;26.936;2023-08-17T05:16:34;99847.23;;;20.33;100.0
64025;BME280;50266;57.446;26.936;2023-08-17T05:17:34;99843.11;;;20.35;100.0
64025;BME280;50266;57.446;26.936;2023-08-17T05:18:34;99840.56;;;20.42;100.0
64025;BME280;50266;57.446;26.936;2023-08-17T05:19:34;99841.44;;;20.45;100.0